Time;durP1;ratioP1;P1;durP2;ratioP2;P2;SDS_P1;SDS_P2;PMS_P1;PMS_P2;Temp;Humidity;BMP_temperature;BMP_pressure;BME280_temperature;BME280_humidity;BME280_pressure;Samples;Min_cycle;Max_cycle;Signal;HPM_P1;HPM_P2
2023/05/12 00:01:15;;;;;;;42.28;19.58;;;;;;;;;;5057790;28;20055;-72
2023/05/12 00:03:41;;;;;;;37.55;18.10;;;;;;;;;;5060186;28;20412;-74
2023/05/12 00:06:07;;;;;;;39.13;19.60;;;;;;;;;;5058211;28;20044;-74
2023/05/12 00:08:33;;;;;;;36.97;18.10;;;;;;;;;;5055814;28;20044;-73
2023/05/12 00:11:01;;;;;;;42.72;20.10;;;;;;;;;;5044235;28;20040;-74
2023/05/12 00:13:27;;;;;;;41.53;19.80;;;;;;;;;;5071777;28;20047;-73
2023/05/12 00:15:55;;;;;;;39.05;19.23;;;;;;;;;;5058085;28;20718;-73
2023/05/12 00:18:22;;;;;;;37.58;18.55;;;;;;;;;;5059303;28;20033;-74
2023/05/12 00:20:48;;;;;;;38.72;19.92;;;;;;;;;;5055909;28;20047;-73
2023/05/12 00:23:14;;;;;;;34.92;18.17;;;;;;;;;;5055756;28;20044;-73
2023/05/12 00:25:40;;;;;;;39.13;19.67;;;;;;;;;;5057738;28;20078;-73
2023/05/12 00:28:06;;;;;;;39.25;20.75;;;;;;;;;;5058290;28;20748;-73
2023/05/12 00:30:32;;;;;;;43.15;19.20;;;;;;;;;;5055709;28;22204;-73
2023/05/12 00:32:58;;;;;;;37.83;19.88;;;;;;;;;;5063810;28;20137;-73
2023/05/12 00:35:24;;;;;;;49.33;21.08;;;;;;;;;;5058248;28;20048;-73
2023/05/12 00:37:50;;;;;;;45.00;20.85;;;;;;;;;;5059279;28;20071;-73
2023/05/12 00:40:16;;;;;;;49.83;22.05;;;;;;;;;;5057375;28;20075;-73
2023/05/12 00:42:42;;;;;;;42.65;21.80;;;;;;;;;;5057863;28;20168;-73
2023/05/12 00:45:09;;;;;;;53.95;24.38;;;;;;;;;;5055658;28;20869;-73
2023/05/12 00:47:35;;;;;;;44.88;21.90;;;;;;;;;;5056277;28;20450;-73
2023/05/12 00:50:02;;;;;;;51.15;23.38;;;;;;;;;;5052338;28;20472;-73
2023/05/12 00:52:28;;;;;;;52.38;23.35;;;;;;;;;;5056610;28;20043;-73
2023/05/12 00:54:54;;;;;;;43.13;23.60;;;;;;;;;;5054795;28;20487;-73
2023/05/12 00:57:21;;;;;;;48.88;22.77;;;;;;;;;;5057061;28;20411;-73
2023/05/12 00:59:47;;;;;;;44.45;22.80;;;;;;;;;;5057054;28;20048;-73
2023/05/12 01:02:13;;;;;;;42.05;22.48;;;;;;;;;;5055547;28;20055;-73
2023/05/12 01:04:40;;;;;;;42.97;20.98;;;;;;;;;;5057385;28;20094;-73
2023/05/12 01:07:09;;;;;;;48.60;22.48;;;;;;;;;;5055386;28;20434;-73
2023/05/12 01:09:35;;;;;;;45.10;21.50;;;;;;;;;;5057422;28;20055;-73
2023/05/12 01:12:01;;;;;;;53.85;22.48;;;;;;;;;;5058633;28;20041;-73
2023/05/12 01:14:27;;;;;;;47.60;22.92;;;;;;;;;;5056179;28;20225;-73
2023/05/12 01:16:55;;;;;;;48.95;22.55;;;;;;;;;;5057718;28;20032;-73
2023/05/12 01:19:41;;;;;;;47.75;21.67;;;;;;;;;;5056538;28;20044;-74
2023/05/12 01:22:08;;;;;;;48.38;22.33;;;;;;;;;;5048350;28;20057;-73
2023/05/12 01:24:38;;;;;;;42.50;21.80;;;;;;;;;;5056752;28;20040;-73
2023/05/12 01:27:04;;;;;;;47.85;22.02;;;;;;;;;;5056614;28;20053;-73
2023/05/12 01:29:31;;;;;;;49.78;23.33;;;;;;;;;;5054563;28;20651;-73
2023/05/12 01:31:58;;;;;;;40.13;21.10;;;;;;;;;;5059584;28;20064;-73
2023/05/12 01:34:25;;;;;;;42.28;20.27;;;;;;;;;;5044885;28;20036;-72
2023/05/12 01:36:51;;;;;;;50.08;22.70;;;;;;;;;;5057592;28;20067;-73
2023/05/12 01:39:17;;;;;;;44.63;22.30;;;;;;;;;;5060470;28;20048;-73
2023/05/12 01:41:43;;;;;;;47.85;22.05;;;;;;;;;;5065599;28;20054;-73
2023/05/12 01:44:09;;;;;;;45.33;23.50;;;;;;;;;;5064978;28;20076;-72
2023/05/12 01:46:35;;;;;;;38.63;20.08;;;;;;;;;;5061264;28;20601;-73
2023/05/12 01:49:01;;;;;;;50.53;23.70;;;;;;;;;;5060269;28;20047;-73
2023/05/12 01:51:27;;;;;;;56.80;23.65;;;;;;;;;;5062930;28;22239;-73
2023/05/12 01:53:54;;;;;;;47.00;23.20;;;;;;;;;;5063052;28;20039;-73
2023/05/12 01:56:20;;;;;;;50.85;22.10;;;;;;;;;;5064089;28;20040;-73
2023/05/12 01:58:46;;;;;;;50.33;22.73;;;;;;;;;;5061765;28;20059;-73
2023/05/12 02:01:12;;;;;;;56.63;24.50;;;;;;;;;;5057583;28;20353;-72
2023/05/12 02:03:38;;;;;;;58.38;24.98;;;;;;;;;;5056957;28;20040;-73
2023/05/12 02:06:05;;;;;;;55.03;24.45;;;;;;;;;;5057981;28;20105;-73
2023/05/12 02:08:31;;;;;;;59.10;25.38;;;;;;;;;;5058067;28;20052;-73
2023/05/12 02:11:04;;;;;;;57.50;25.70;;;;;;;;;;5064131;28;20415;-73
2023/05/12 02:13:30;;;;;;;55.17;25.75;;;;;;;;;;5057843;28;20048;-73
2023/05/12 02:15:57;;;;;;;51.47;25.00;;;;;;;;;;5056232;28;20047;-73
2023/05/12 02:18:23;;;;;;;53.90;25.50;;;;;;;;;;5058062;28;20055;-72
2023/05/12 02:20:49;;;;;;;57.20;26.25;;;;;;;;;;5036904;28;20058;-73
2023/05/12 02:23:15;;;;;;;65.03;27.13;;;;;;;;;;5057365;28;20072;-74
2023/05/12 02:25:41;;;;;;;60.58;26.20;;;;;;;;;;5064996;28;20052;-74
2023/05/12 02:28:09;;;;;;;63.92;25.42;;;;;;;;;;5063761;28;20044;-73
2023/05/12 02:30:38;;;;;;;56.15;25.92;;;;;;;;;;5058123;28;20102;-73
2023/05/12 02:33:05;;;;;;;57.40;25.70;;;;;;;;;;5057259;28;20048;-73
2023/05/12 02:35:31;;;;;;;61.42;26.60;;;;;;;;;;5058877;28;20044;-73
2023/05/12 02:37:57;;;;;;;55.90;26.30;;;;;;;;;;5057999;28;20515;-73
2023/05/12 02:40:23;;;;;;;60.33;27.45;;;;;;;;;;5060599;28;20101;-73
2023/05/12 02:42:49;;;;;;;55.28;26.13;;;;;;;;;;5059417;28;20170;-73
2023/05/12 02:45:15;;;;;;;69.15;26.90;;;;;;;;;;5058270;28;20052;-73
2023/05/12 02:47:41;;;;;;;63.45;27.77;;;;;;;;;;5057542;28;20074;-73
2023/05/12 02:50:08;;;;;;;62.70;27.40;;;;;;;;;;5056569;28;20041;-73
2023/05/12 02:52:34;;;;;;;70.22;28.58;;;;;;;;;;5059321;28;21001;-73
2023/05/12 02:55:00;;;;;;;66.72;28.63;;;;;;;;;;5043131;28;20040;-74
2023/05/12 02:57:31;;;;;;;62.90;29.60;;;;;;;;;;5059283;28;20495;-73
2023/05/12 02:59:58;;;;;;;61.90;29.67;;;;;;;;;;5056975;28;20093;-73
2023/05/12 03:02:24;;;;;;;76.68;29.73;;;;;;;;;;5057131;28;20032;-73
2023/05/12 03:04:50;;;;;;;67.72;30.50;;;;;;;;;;5055740;28;21989;-72
2023/05/12 03:07:16;;;;;;;68.25;28.92;;;;;;;;;;5060299;28;21393;-73
2023/05/12 03:09:42;;;;;;;70.97;29.05;;;;;;;;;;5055512;28;20044;-73
2023/05/12 03:12:08;;;;;;;64.95;27.75;;;;;;;;;;5059352;28;20039;-72
2023/05/12 03:14:34;;;;;;;66.15;29.83;;;;;;;;;;5061913;28;20168;-73
2023/05/12 03:17:00;;;;;;;65.80;28.45;;;;;;;;;;5062383;28;20055;-73
2023/05/12 03:19:27;;;;;;;64.32;30.10;;;;;;;;;;5062934;28;20070;-73
2023/05/12 03:21:53;;;;;;;69.65;31.58;;;;;;;;;;5045050;28;20040;-73
2023/05/12 03:24:19;;;;;;;66.65;28.35;;;;;;;;;;5064196;28;20055;-72
2023/05/12 03:26:45;;;;;;;71.72;32.97;;;;;;;;;;5060101;28;20047;-73
2023/05/12 03:29:11;;;;;;;66.38;30.58;;;;;;;;;;5078164;28;20975;-73
2023/05/12 03:31:38;;;;;;;69.75;31.75;;;;;;;;;;5061892;28;20089;-72
2023/05/12 03:34:04;;;;;;;72.15;32.40;;;;;;;;;;5077704;28;20076;-73
2023/05/12 03:36:30;;;;;;;78.35;30.38;;;;;;;;;;5063176;28;20047;-73
2023/05/12 03:38:56;;;;;;;66.15;30.98;;;;;;;;;;5062437;28;20039;-73
2023/05/12 03:41:22;;;;;;;63.17;30.33;;;;;;;;;;5063823;28;20127;-72
2023/05/12 03:43:49;;;;;;;70.15;32.20;;;;;;;;;;5061201;28;20040;-72
2023/05/12 03:46:15;;;;;;;70.95;30.83;;;;;;;;;;5056815;28;20079;-73
2023/05/12 03:48:41;;;;;;;72.80;31.83;;;;;;;;;;5054116;28;20044;-73
2023/05/12 03:51:07;;;;;;;77.10;31.35;;;;;;;;;;5055163;28;20131;-73
2023/05/12 03:53:33;;;;;;;73.88;31.60;;;;;;;;;;5041269;28;20464;-72
2023/05/12 03:56:03;;;;;;;76.25;32.13;;;;;;;;;;5056879;28;20539;-72
2023/05/12 03:58:29;;;;;;;68.68;32.15;;;;;;;;;;5054428;28;20078;-73
2023/05/12 04:01:00;;;;;;;84.45;33.45;;;;;;;;;;5053692;28;20048;-73
2023/05/12 04:03:26;;;;;;;77.75;33.42;;;;;;;;;;5054897;28;20044;-73
2023/05/12 04:05:58;;;;;;;73.15;32.95;;;;;;;;;;5049243;28;20044;-73
2023/05/12 04:08:24;;;;;;;77.18;32.15;;;;;;;;;;5036732;28;20059;-72
2023/05/12 04:10:51;;;;;;;76.00;31.98;;;;;;;;;;5028308;28;21180;-73
2023/05/12 04:13:17;;;;;;;68.65;33.10;;;;;;;;;;5028835;28;20047;-73
2023/05/12 04:15:43;;;;;;;75.40;33.70;;;;;;;;;;5052238;28;20056;-72
2023/05/12 04:18:09;;;;;;;70.38;33.47;;;;;;;;;;5049650;28;20502;-72
2023/05/12 04:20:35;;;;;;;76.90;33.10;;;;;;;;;;5048921;28;20051;-72
2023/05/12 04:23:01;;;;;;;68.38;33.85;;;;;;;;;;5051520;28;20035;-72
2023/05/12 04:25:27;;;;;;;78.57;34.05;;;;;;;;;;5053767;28;21434;-72
2023/05/12 04:27:53;;;;;;;73.00;34.50;;;;;;;;;;5052042;28;20067;-72
2023/05/12 04:30:19;;;;;;;75.70;33.97;;;;;;;;;;5050509;28;20045;-72
2023/05/12 04:32:47;;;;;;;72.78;33.53;;;;;;;;;;5064515;28;20097;-72
2023/05/12 04:35:14;;;;;;;75.50;33.72;;;;;;;;;;5049973;28;20049;-72
2023/05/12 04:37:40;;;;;;;69.40;34.80;;;;;;;;;;5051948;28;20040;-72
2023/05/12 04:40:07;;;;;;;85.18;36.45;;;;;;;;;;5066936;28;20160;-72
2023/05/12 04:42:34;;;;;;;71.68;34.45;;;;;;;;;;5049605;28;20090;-72
2023/05/12 04:45:00;;;;;;;79.53;34.90;;;;;;;;;;5050334;28;20603;-72
2023/05/12 04:47:28;;;;;;;78.45;35.42;;;;;;;;;;5045218;28;20048;-72
2023/05/12 04:49:54;;;;;;;72.05;35.58;;;;;;;;;;5066639;28;20052;-72
2023/05/12 04:52:21;;;;;;;78.15;38.45;;;;;;;;;;5048364;28;20776;-72
2023/05/12 04:54:47;;;;;;;84.75;37.40;;;;;;;;;;5049526;28;20549;-72
2023/05/12 04:57:13;;;;;;;70.65;36.15;;;;;;;;;;5048752;28;20040;-72
2023/05/12 04:59:41;;;;;;;82.97;39.00;;;;;;;;;;5047895;28;20059;-72
2023/05/12 05:02:07;;;;;;;84.80;39.15;;;;;;;;;;5051488;28;20044;-72
2023/05/12 05:04:33;;;;;;;84.75;40.67;;;;;;;;;;5049978;28;20123;-72
2023/05/12 05:06:59;;;;;;;86.20;41.40;;;;;;;;;;5051380;28;20097;-72
2023/05/12 05:09:25;;;;;;;83.25;40.58;;;;;;;;;;5054386;28;20391;-71
2023/05/12 05:11:51;;;;;;;82.18;40.85;;;;;;;;;;5052491;28;20131;-71
2023/05/12 05:14:17;;;;;;;75.85;42.28;;;;;;;;;;5056671;28;20040;-72
2023/05/12 05:16:45;;;;;;;82.28;42.13;;;;;;;;;;5055028;28;20495;-72
2023/05/12 05:19:12;;;;;;;87.38;43.95;;;;;;;;;;5060339;28;20049;-72
2023/05/12 05:21:38;;;;;;;79.53;43.85;;;;;;;;;;5072395;28;20444;-72
2023/05/12 05:24:04;;;;;;;80.07;45.53;;;;;;;;;;5057437;28;20498;-72
2023/05/12 05:26:31;;;;;;;91.88;44.63;;;;;;;;;;5058719;28;20046;-72
2023/05/12 05:28:57;;;;;;;84.80;43.17;;;;;;;;;;5058728;28;20040;-72
2023/05/12 05:31:23;;;;;;;80.63;45.70;;;;;;;;;;5058632;28;20522;-73
2023/05/12 05:33:49;;;;;;;86.47;44.80;;;;;;;;;;5057292;28;20047;-73
2023/05/12 05:36:15;;;;;;;86.30;45.33;;;;;;;;;;5055951;28;21897;-72
2023/05/12 05:38:41;;;;;;;79.93;43.88;;;;;;;;;;5057718;28;20048;-72
2023/05/12 05:41:08;;;;;;;84.65;46.35;;;;;;;;;;5055479;28;20046;-72
2023/05/12 05:43:34;;;;;;;89.20;47.83;;;;;;;;;;5038385;28;20405;-72
2023/05/12 05:46:00;;;;;;;86.43;47.35;;;;;;;;;;5055831;28;20488;-72
2023/05/12 05:48:26;;;;;;;89.55;48.58;;;;;;;;;;5056180;28;20036;-72
2023/05/12 05:50:53;;;;;;;87.72;48.42;;;;;;;;;;5056441;28;20496;-72
2023/05/12 05:53:20;;;;;;;86.72;49.83;;;;;;;;;;5058090;28;20047;-73
2023/05/12 05:55:47;;;;;;;88.32;50.30;;;;;;;;;;5054985;28;20810;-73
2023/05/12 05:58:14;;;;;;;80.65;48.58;;;;;;;;;;5056258;28;20051;-72
2023/05/12 06:00:42;;;;;;;92.40;53.17;;;;;;;;;;5054164;28;20189;-72
2023/05/12 06:03:09;;;;;;;88.63;52.75;;;;;;;;;;5055309;28;20047;-73
2023/05/12 06:05:35;;;;;;;86.82;50.03;;;;;;;;;;5054943;28;20048;-72
2023/05/12 06:08:01;;;;;;;78.25;48.22;;;;;;;;;;5033282;28;20071;-73
2023/05/12 06:10:27;;;;;;;84.95;51.22;;;;;;;;;;5035890;28;22071;-68
2023/05/12 06:12:53;;;;;;;78.22;48.50;;;;;;;;;;5052573;28;20043;-68
2023/05/12 06:15:20;;;;;;;85.65;47.97;;;;;;;;;;5053009;28;20082;-68
2023/05/12 06:17:46;;;;;;;80.78;49.38;;;;;;;;;;5055007;28;20046;-68
2023/05/12 06:20:13;;;;;;;84.50;48.53;;;;;;;;;;5054446;28;20067;-68
2023/05/12 06:22:41;;;;;;;81.13;48.42;;;;;;;;;;5053738;28;20086;-68
2023/05/12 06:25:07;;;;;;;84.70;48.33;;;;;;;;;;5048922;28;20105;-68
2023/05/12 06:27:33;;;;;;;80.07;49.28;;;;;;;;;;5058578;28;20048;-68
2023/05/12 06:29:59;;;;;;;86.35;49.95;;;;;;;;;;5060535;28;20043;-68
2023/05/12 06:32:25;;;;;;;84.45;50.50;;;;;;;;;;5057215;28;20056;-79
2023/05/12 06:34:52;;;;;;;81.50;48.28;;;;;;;;;;5071003;28;20075;-79
2023/05/12 06:37:18;;;;;;;85.80;50.13;;;;;;;;;;5055731;28;20089;-79
2023/05/12 06:39:44;;;;;;;85.07;50.17;;;;;;;;;;5053029;28;20804;-79
2023/05/12 06:42:10;;;;;;;79.45;47.40;;;;;;;;;;5052239;28;20552;-79
2023/05/12 06:44:36;;;;;;;76.70;48.42;;;;;;;;;;5055317;28;20044;-76
2023/05/12 06:47:03;;;;;;;80.80;48.55;;;;;;;;;;5054315;28;20159;-76
2023/05/12 06:49:30;;;;;;;79.28;49.95;;;;;;;;;;5057498;28;20051;-78
2023/05/12 06:51:56;;;;;;;78.40;51.60;;;;;;;;;;5071827;28;20495;-78
2023/05/12 06:54:22;;;;;;;82.30;51.00;;;;;;;;;;5057603;28;20691;-78
2023/05/12 06:56:48;;;;;;;80.38;50.60;;;;;;;;;;5057295;28;20044;-78
2023/05/12 06:59:14;;;;;;;80.22;50.88;;;;;;;;;;5057209;28;20098;-78
2023/05/12 07:01:41;;;;;;;81.13;52.45;;;;;;;;;;5054711;28;20040;-79
2023/05/12 07:04:08;;;;;;;92.78;52.65;;;;;;;;;;5057294;28;20138;-79
2023/05/12 07:06:34;;;;;;;82.32;52.45;;;;;;;;;;5076502;27;20032;-76
2023/05/12 07:09:00;;;;;;;84.38;50.80;;;;;;;;;;5058973;28;20033;-78
2023/05/12 07:11:26;;;;;;;79.65;53.60;;;;;;;;;;5056791;28;20212;-78
2023/05/12 07:13:52;;;;;;;83.82;53.92;;;;;;;;;;5057065;28;20105;-79
2023/05/12 07:16:18;;;;;;;85.05;53.97;;;;;;;;;;5057162;28;20051;-78
2023/05/12 07:18:45;;;;;;;78.65;51.05;;;;;;;;;;5054677;28;21061;-78
2023/05/12 07:21:11;;;;;;;73.90;50.60;;;;;;;;;;5056777;28;20391;-78
2023/05/12 07:23:38;;;;;;;80.45;50.53;;;;;;;;;;5069688;28;20051;-78
2023/05/12 07:26:04;;;;;;;79.35;51.00;;;;;;;;;;5053768;28;20399;-79
2023/05/12 07:28:34;;;;;;;76.30;51.65;;;;;;;;;;5054237;28;20780;-78
2023/05/12 07:31:00;;;;;;;68.43;49.22;;;;;;;;;;5055452;28;20057;-78
2023/05/12 07:33:26;;;;;;;74.80;48.15;;;;;;;;;;5054560;28;20040;-78
2023/05/12 07:35:52;;;;;;;74.70;48.83;;;;;;;;;;5051822;28;20094;-78
2023/05/12 07:38:18;;;;;;;67.78;46.58;;;;;;;;;;5054784;28;20720;-78
2023/05/12 07:40:45;;;;;;;71.75;50.00;;;;;;;;;;5056315;28;20055;-79
2023/05/12 07:43:11;;;;;;;75.28;51.05;;;;;;;;;;5036640;28;20128;-78
2023/05/12 07:45:37;;;;;;;69.53;48.33;;;;;;;;;;5054677;28;20059;-78
2023/05/12 07:48:03;;;;;;;70.00;48.05;;;;;;;;;;5055920;28;22340;-79
2023/05/12 07:50:29;;;;;;;68.85;48.67;;;;;;;;;;5051821;28;20040;-79
2023/05/12 07:52:55;;;;;;;62.75;46.85;;;;;;;;;;5037975;28;20535;-78
2023/05/12 07:55:22;;;;;;;66.88;49.10;;;;;;;;;;5053444;28;20059;-78
2023/05/12 07:57:52;;;;;;;64.35;46.72;;;;;;;;;;5055163;28;20048;-78
2023/05/12 08:00:18;;;;;;;63.03;46.85;;;;;;;;;;5051241;28;20504;-78
2023/05/12 08:02:44;;;;;;;61.45;45.38;;;;;;;;;;5054824;28;20097;-78
2023/05/12 08:05:10;;;;;;;61.78;46.20;;;;;;;;;;5036028;28;20036;-78
2023/05/12 08:07:37;;;;;;;64.00;48.00;;;;;;;;;;5053076;28;20050;-78
2023/05/12 08:10:07;;;;;;;61.58;45.92;;;;;;;;;;5039738;28;20048;-78
2023/05/12 08:12:33;;;;;;;62.20;47.70;;;;;;;;;;5054724;28;20067;-79
2023/05/12 08:14:59;;;;;;;59.50;44.67;;;;;;;;;;5051893;28;20044;-79
2023/05/12 08:17:25;;;;;;;60.35;45.80;;;;;;;;;;5053892;28;20048;-79
2023/05/12 08:19:51;;;;;;;59.10;43.00;;;;;;;;;;5053003;28;20254;-78
2023/05/12 08:22:17;;;;;;;55.50;43.17;;;;;;;;;;5056227;28;20062;-77
2023/05/12 08:24:44;;;;;;;58.47;43.88;;;;;;;;;;5052602;28;20039;-78
2023/05/12 08:27:10;;;;;;;55.97;42.88;;;;;;;;;;5052398;28;20044;-77
2023/05/12 08:29:38;;;;;;;55.03;42.80;;;;;;;;;;5054802;28;20131;-77
2023/05/12 08:32:05;;;;;;;56.70;42.70;;;;;;;;;;5058896;28;20442;-77
2023/05/12 08:34:31;;;;;;;55.50;40.95;;;;;;;;;;5057686;28;20086;-76
2023/05/12 08:36:57;;;;;;;57.33;42.65;;;;;;;;;;5054617;28;20079;-75
2023/05/12 08:39:23;;;;;;;55.72;42.75;;;;;;;;;;5059732;28;20048;-79
2023/05/12 08:41:58;;;;;;;53.50;42.80;;;;;;;;;;5058285;28;20446;-76
2023/05/12 08:44:24;;;;;;;52.80;42.58;;;;;;;;;;5056882;28;20063;-76
2023/05/12 08:46:51;;;;;;;51.15;41.40;;;;;;;;;;5059055;28;20286;-77
2023/05/12 08:49:20;;;;;;;51.67;43.08;;;;;;;;;;5059960;28;20044;-76
2023/05/12 08:51:47;;;;;;;48.95;41.85;;;;;;;;;;5058385;28;20048;-76
2023/05/12 08:54:14;;;;;;;49.33;40.38;;;;;;;;;;5073873;28;20174;-77
2023/05/12 08:56:40;;;;;;;44.95;38.05;;;;;;;;;;5060575;28;20644;-76
2023/05/12 08:59:08;;;;;;;49.55;38.72;;;;;;;;;;5060602;28;20040;-76
2023/05/12 09:01:34;;;;;;;40.80;35.65;;;;;;;;;;5055858;28;20106;-76
2023/05/12 09:04:01;;;;;;;47.08;37.85;;;;;;;;;;5058176;28;20451;-76
2023/05/12 09:06:27;;;;;;;40.10;35.75;;;;;;;;;;5057488;28;20535;-77
2023/05/12 09:08:53;;;;;;;37.75;32.60;;;;;;;;;;5057635;28;21537;-76
2023/05/12 09:11:20;;;;;;;38.47;30.73;;;;;;;;;;5059261;28;20049;-77
2023/05/12 09:14:08;;;;;;;35.33;29.17;;;;;;;;;;5058508;28;20048;-77
2023/05/12 09:16:58;;;;;;;36.40;29.48;;;;;;;;;;5056236;28;20091;-76
2023/05/12 09:19:24;;;;;;;34.15;29.25;;;;;;;;;;5037497;28;20078;-71
2023/05/12 09:21:50;;;;;;;31.25;27.85;;;;;;;;;;5065731;28;20052;-71
2023/05/12 09:24:16;;;;;;;34.28;28.02;;;;;;;;;;5053117;28;20048;-72
2023/05/12 09:26:46;;;;;;;29.85;26.13;;;;;;;;;;5066569;28;20067;-71
2023/05/12 09:29:12;;;;;;;29.92;26.02;;;;;;;;;;5052419;28;20492;-71
2023/05/12 09:31:39;;;;;;;30.42;26.48;;;;;;;;;;5069561;28;20589;-71
2023/05/12 09:34:08;;;;;;;29.10;26.02;;;;;;;;;;5053055;28;20043;-72
2023/05/12 09:36:35;;;;;;;29.55;23.85;;;;;;;;;;5053585;28;20163;-72
2023/05/12 09:39:05;;;;;;;25.33;22.70;;;;;;;;;;5052995;28;20666;-72
2023/05/12 09:41:51;;;;;;;26.05;23.10;;;;;;;;;;5054121;28;20148;-72
2023/05/12 09:44:17;;;;;;;24.20;21.48;;;;;;;;;;5051601;28;20040;-72
2023/05/12 09:46:43;;;;;;;26.23;22.52;;;;;;;;;;5052008;28;20120;-72
2023/05/12 09:49:10;;;;;;;25.48;22.10;;;;;;;;;;5052264;28;20051;-75
2023/05/12 09:51:37;;;;;;;29.70;22.15;;;;;;;;;;5054034;28;20365;-72
2023/05/12 09:54:03;;;;;;;23.85;21.42;;;;;;;;;;5055736;28;20036;-72
2023/05/12 09:56:31;;;;;;;25.05;21.42;;;;;;;;;;5055047;28;20131;-72
2023/05/12 09:58:57;;;;;;;23.13;20.10;;;;;;;;;;5055631;28;20897;-71
2023/05/12 10:01:24;;;;;;;22.52;20.10;;;;;;;;;;5059611;28;20090;-72
2023/05/12 10:03:55;;;;;;;23.33;19.25;;;;;;;;;;5059350;28;20472;-72
2023/05/12 10:06:27;;;;;;;18.67;16.63;;;;;;;;;;5057528;28;20460;-72
2023/05/12 10:08:56;;;;;;;17.15;15.35;;;;;;;;;;5055882;28;20095;-72
2023/05/12 10:11:22;;;;;;;15.35;13.57;;;;;;;;;;5056141;28;20054;-72
2023/05/12 10:13:48;;;;;;;18.42;13.10;;;;;;;;;;5055736;28;20590;-70
2023/05/12 10:16:15;;;;;;;20.25;17.00;;;;;;;;;;5056578;28;20526;-69
2023/05/12 10:18:46;;;;;;;22.67;17.83;;;;;;;;;;5057849;28;20036;-70
2023/05/12 10:21:12;;;;;;;19.00;17.05;;;;;;;;;;5055530;28;21710;-70
2023/05/12 10:23:40;;;;;;;21.98;16.85;;;;;;;;;;5056314;28;20493;-70
2023/05/12 10:26:06;;;;;;;17.80;15.90;;;;;;;;;;5055846;28;20044;-71
2023/05/12 10:28:33;;;;;;;25.02;16.52;;;;;;;;;;5058072;28;20126;-71
2023/05/12 10:30:59;;;;;;;18.92;16.95;;;;;;;;;;5058802;28;22259;-71
2023/05/12 10:33:26;;;;;;;18.52;15.70;;;;;;;;;;5054536;28;20052;-71
2023/05/12 10:35:52;;;;;;;17.33;15.52;;;;;;;;;;5054665;28;20295;-71
2023/05/12 10:38:19;;;;;;;17.02;14.43;;;;;;;;;;5057525;28;20101;-71
2023/05/12 10:40:50;;;;;;;14.05;12.50;;;;;;;;;;5057822;28;20051;-70
2023/05/12 10:43:23;;;;;;;23.13;13.90;;;;;;;;;;5056859;28;20044;-71
2023/05/12 10:46:06;;;;;;;19.85;11.30;;;;;;;;;;5056703;28;20048;-71
2023/05/12 10:48:32;;;;;;;16.27;12.20;;;;;;;;;;5055814;28;20045;-71
2023/05/12 10:51:06;;;;;;;14.05;11.95;;;;;;;;;;5060451;28;20503;-71
2023/05/12 10:53:33;;;;;;;12.40;10.75;;;;;;;;;;5056754;28;20787;-71
2023/05/12 10:56:02;;;;;;;13.00;10.27;;;;;;;;;;5056820;28;20521;-70
2023/05/12 10:58:28;;;;;;;10.90;9.80;;;;;;;;;;5056641;28;20110;-70
2023/05/12 11:00:55;;;;;;;11.05;9.85;;;;;;;;;;5056136;28;20032;-71
2023/05/12 11:03:24;;;;;;;11.40;10.35;;;;;;;;;;5054209;28;20103;-71
2023/05/12 11:06:00;;;;;;;11.85;9.32;;;;;;;;;;5058747;28;20044;-71
2023/05/12 11:08:26;;;;;;;9.25;7.70;;;;;;;;;;5059116;28;20032;-72
2023/05/12 11:10:53;;;;;;;8.27;7.45;;;;;;;;;;5057166;28;20601;-71
2023/05/12 11:13:19;;;;;;;11.57;8.40;;;;;;;;;;5058440;28;20523;-71
2023/05/12 11:15:45;;;;;;;9.98;7.25;;;;;;;;;;5056890;28;20776;-71
2023/05/12 11:18:12;;;;;;;8.85;6.40;;;;;;;;;;5054458;28;20040;-69
2023/05/12 11:20:38;;;;;;;9.07;6.63;;;;;;;;;;5053825;28;20071;-68
2023/05/12 11:23:04;;;;;;;6.18;5.57;;;;;;;;;;5060592;28;20078;-70
2023/05/12 11:25:30;;;;;;;8.40;5.75;;;;;;;;;;5056524;28;20044;-69
2023/05/12 11:27:57;;;;;;;9.80;8.75;;;;;;;;;;5054949;28;20531;-70
2023/05/12 11:30:23;;;;;;;10.63;7.75;;;;;;;;;;5052959;28;20441;-70
2023/05/12 11:32:59;;;;;;;16.17;7.63;;;;;;;;;;5070254;28;20134;-69
2023/05/12 11:35:29;;;;;;;8.90;7.28;;;;;;;;;;5053687;28;21771;-69
2023/05/12 11:37:55;;;;;;;10.13;8.35;;;;;;;;;;5058382;28;20052;-75
2023/05/12 11:40:22;;;;;;;9.30;7.85;;;;;;;;;;5056304;28;20087;-75
2023/05/12 11:42:51;;;;;;;11.65;9.07;;;;;;;;;;5039867;28;20051;-69
2023/05/12 11:45:23;;;;;;;9.68;8.48;;;;;;;;;;5055249;28;20050;-69
2023/05/12 11:47:49;;;;;;;11.63;8.85;;;;;;;;;;5072562;28;20032;-68
2023/05/12 11:50:22;;;;;;;12.10;9.48;;;;;;;;;;5053227;28;20067;-69
2023/05/12 11:52:49;;;;;;;10.88;9.77;;;;;;;;;;5037739;28;20040;-68
2023/05/12 11:55:20;;;;;;;10.63;9.55;;;;;;;;;;5053053;28;20063;-69
2023/05/12 11:57:54;;;;;;;11.30;8.82;;;;;;;;;;5053281;28;20044;-69
2023/05/12 12:00:26;;;;;;;13.10;8.60;;;;;;;;;;5056947;28;20115;-69
2023/05/12 12:02:52;;;;;;;15.35;8.32;;;;;;;;;;5059714;28;20131;-69
2023/05/12 12:05:20;;;;;;;14.43;9.35;;;;;;;;;;5058405;28;20192;-68
2023/05/12 12:07:46;;;;;;;11.18;8.75;;;;;;;;;;5063162;28;20051;-69
2023/05/12 12:10:16;;;;;;;10.52;9.05;;;;;;;;;;5057347;28;20101;-69
2023/05/12 12:12:43;;;;;;;10.75;9.00;;;;;;;;;;5055552;28;20137;-69
2023/05/12 12:15:10;;;;;;;11.40;9.43;;;;;;;;;;5057382;28;20044;-69
2023/05/12 12:17:36;;;;;;;10.88;9.77;;;;;;;;;;5058878;28;21701;-69
2023/05/12 12:20:02;;;;;;;17.80;10.63;;;;;;;;;;5056384;28;20503;-69
2023/05/12 12:22:32;;;;;;;15.90;10.90;;;;;;;;;;5059562;28;20052;-69
2023/05/12 12:24:59;;;;;;;13.70;11.05;;;;;;;;;;5058736;28;20047;-69
2023/05/12 12:27:25;;;;;;;13.50;10.65;;;;;;;;;;5059800;28;20048;-69
2023/05/12 12:29:51;;;;;;;11.73;10.20;;;;;;;;;;5056822;28;20048;-69
2023/05/12 12:32:17;;;;;;;12.88;10.70;;;;;;;;;;5057099;28;20055;-69
2023/05/12 12:34:47;;;;;;;12.77;9.77;;;;;;;;;;5059203;28;20072;-67
2023/05/12 12:37:13;;;;;;;11.73;10.55;;;;;;;;;;5055549;28;20096;-69
2023/05/12 12:39:39;;;;;;;13.70;11.70;;;;;;;;;;5067667;28;20116;-68
2023/05/12 12:42:05;;;;;;;12.95;10.05;;;;;;;;;;5061553;28;20036;-68
2023/05/12 12:44:32;;;;;;;14.35;10.63;;;;;;;;;;5060298;28;20629;-69
2023/05/12 12:46:58;;;;;;;11.48;10.35;;;;;;;;;;5058719;28;20496;-69
2023/05/12 12:49:24;;;;;;;12.25;10.18;;;;;;;;;;5056410;28;20114;-68
2023/05/12 12:51:50;;;;;;;12.00;10.70;;;;;;;;;;5057954;28;20492;-68
2023/05/12 12:54:16;;;;;;;16.65;10.85;;;;;;;;;;5055816;28;20048;-68
2023/05/12 12:56:43;;;;;;;14.52;10.75;;;;;;;;;;5056913;28;20174;-68
2023/05/12 12:59:10;;;;;;;13.52;10.85;;;;;;;;;;5056066;28;22166;-68
2023/05/12 13:01:36;;;;;;;18.23;11.25;;;;;;;;;;5056928;28;20109;-68
2023/05/12 13:04:03;;;;;;;13.80;10.73;;;;;;;;;;5057126;28;20055;-69
2023/05/12 13:06:29;;;;;;;12.65;9.98;;;;;;;;;;5057091;28;20063;-69
2023/05/12 13:08:56;;;;;;;15.10;10.10;;;;;;;;;;5055853;28;20154;-69
2023/05/12 13:11:22;;;;;;;13.18;10.07;;;;;;;;;;5056073;28;20040;-67
2023/05/12 13:13:48;;;;;;;13.93;9.48;;;;;;;;;;5056992;28;20044;-69
2023/05/12 13:16:14;;;;;;;16.10;8.77;;;;;;;;;;5057574;28;20043;-69
2023/05/12 13:18:40;;;;;;;10.40;8.80;;;;;;;;;;5056463;28;20040;-69
2023/05/12 13:21:06;;;;;;;8.98;7.78;;;;;;;;;;5058196;28;20056;-69
2023/05/12 13:23:32;;;;;;;12.45;7.05;;;;;;;;;;5057253;28;20140;-69
2023/05/12 13:25:58;;;;;;;12.15;6.05;;;;;;;;;;5054783;28;20044;-69
2023/05/12 13:28:24;;;;;;;8.40;6.15;;;;;;;;;;5039010;28;20496;-69
2023/05/12 13:30:51;;;;;;;9.38;7.35;;;;;;;;;;5056041;28;20994;-69
2023/05/12 13:33:17;;;;;;;10.70;7.40;;;;;;;;;;5055820;28;21025;-69
2023/05/12 13:35:43;;;;;;;8.52;7.22;;;;;;;;;;5056939;28;20533;-70
2023/05/12 13:38:09;;;;;;;8.75;7.28;;;;;;;;;;5059707;28;21664;-70
2023/05/12 13:40:36;;;;;;;8.85;7.43;;;;;;;;;;5061102;28;20044;-69
2023/05/12 13:43:02;;;;;;;14.27;7.30;;;;;;;;;;5058958;28;20200;-69
2023/05/12 13:45:28;;;;;;;11.02;7.38;;;;;;;;;;5060719;28;20040;-69
2023/05/12 13:47:54;;;;;;;7.82;5.57;;;;;;;;;;5060357;28;20039;-69
2023/05/12 13:50:20;;;;;;;13.15;5.80;;;;;;;;;;5057863;28;21808;-69
2023/05/12 13:52:46;;;;;;;9.57;6.15;;;;;;;;;;5059402;28;20496;-69
2023/05/12 13:55:13;;;;;;;9.68;5.78;;;;;;;;;;5062728;28;20585;-76
2023/05/12 13:57:39;;;;;;;8.63;5.63;;;;;;;;;;5062415;28;20123;-69
2023/05/12 14:00:06;;;;;;;7.30;5.13;;;;;;;;;;5065379;28;20052;-70
2023/05/12 14:02:33;;;;;;;7.65;5.45;;;;;;;;;;5063708;28;20051;-69
2023/05/12 14:04:59;;;;;;;6.80;6.15;;;;;;;;;;5061493;28;20037;-75
2023/05/12 14:07:25;;;;;;;9.63;6.15;;;;;;;;;;5075150;28;20036;-75
2023/05/12 14:09:51;;;;;;;7.38;5.53;;;;;;;;;;5061793;28;20051;-76
2023/05/12 14:12:17;;;;;;;8.68;4.85;;;;;;;;;;5059302;28;20044;-76
2023/05/12 14:14:48;;;;;;;6.20;4.03;;;;;;;;;;5060943;28;20098;-76
2023/05/12 14:17:14;;;;;;;5.18;4.15;;;;;;;;;;5062617;28;20106;-70
2023/05/12 14:19:40;;;;;;;7.05;4.15;;;;;;;;;;5062334;28;20107;-68